Time;durP1;ratioP1;P1;durP2;ratioP2;P2;SDS_P1;SDS_P2;PMS_P1;PMS_P2;Temp;Humidity;BMP_temperature;BMP_pressure;BME280_temperature;BME280_humidity;BME280_pressure;Samples;Min_cycle;Max_cycle;Signal;HPM_P1;HPM_P2
2023/01/13 10:17:10;;;;;;;1.07;0.70;;;;;;;9.10;100.00;98372.38;5129369;27;20513;-87
2023/01/13 10:19:43;;;;;;;0.97;0.80;;;;;;;9.61;99.67;98363.69;5112002;27;38737;-82
2023/01/13 10:22:24;;;;;;;1.93;0.50;;;;;;;10.30;96.25;98346.63;5110744;27;40614;-88
2023/01/13 10:25:17;;;;;;;2.93;1.00;;;;;;;12.41;84.68;98374.38;5111947;27;45148;-84
2023/01/13 10:27:48;;;;;;;1.23;0.50;;;;;;;14.42;74.37;98382.72;5128825;27;43091;-81
2023/01/13 10:36:23;;;;;;;0.97;0.60;;;;;;;20.89;48.39;98463.41;5108824;27;43473;-81
2023/01/13 10:38:51;;;;;;;2.23;0.70;;;;;;;20.77;46.64;98428.75;5111720;27;41259;-87
2023/01/13 10:41:25;;;;;;;0.93;0.70;;;;;;;20.63;47.77;98448.31;5110217;27;39709;-85
2023/01/13 10:44:03;;;;;;;0.93;0.60;;;;;;;22.07;45.09;98481.38;5111414;27;41485;-86
2023/01/13 10:50:24;;;;;;;2.37;0.80;;;;;;;24.75;39.87;98483.81;5110814;27;42914;-88
2023/01/13 10:53:19;;;;;;;2.17;0.93;;;;;;;25.89;36.60;98496.94;5110819;27;38706;-87
2023/01/13 10:56:28;;;;;;;1.53;0.93;;;;;;;27.03;34.55;98513.34;5125770;27;41990;-91
2023/01/13 11:02:40;;;;;;;1.80;0.90;;;;;;;26.91;32.34;98487.78;5101453;27;40752;-88
2023/01/13 11:09:02;;;;;;;2.10;0.90;;;;;;;24.17;35.32;98486.56;5109250;27;41851;-86
2023/01/13 11:11:54;;;;;;;1.57;0.90;;;;;;;24.13;35.79;98457.34;5151250;27;40704;-87
2023/01/13 11:15:16;;;;;;;1.20;0.83;;;;;;;24.08;36.19;98479.59;5153268;27;41647;-88
2023/01/13 11:18:36;;;;;;;2.23;0.80;;;;;;;22.77;37.89;98475.81;5152021;27;38675;-87
2023/01/13 11:21:13;;;;;;;2.33;0.87;;;;;;;21.01;39.32;98441.34;5153868;27;40774;-83
2023/01/13 11:23:47;;;;;;;1.40;0.60;;;;;;;19.82;41.73;98441.97;5184597;27;42608;-79
2023/01/13 11:26:21;;;;;;;1.97;1.23;;;;;;;19.36;43.14;98441.47;5165446;27;42243;-80
2023/01/13 11:28:59;;;;;;;2.00;0.80;;;;;;;19.32;42.78;98440.09;5172818;27;38992;-81
2023/01/13 11:34:45;;;;;;;6.13;1.00;;;;;;;19.44;41.81;98449.53;5158032;27;42919;-84
2023/01/13 11:37:21;;;;;;;3.60;1.07;;;;;;;20.78;39.49;98459.22;5126998;27;41190;-84
2023/01/13 11:40:17;;;;;;;2.83;0.90;;;;;;;20.93;39.12;98457.50;5103220;27;39982;-84
2023/01/13 11:42:53;;;;;;;3.57;1.00;;;;;;;21.55;38.64;98465.78;5096124;28;40451;-83
2023/01/13 11:45:26;;;;;;;2.23;0.90;;;;;;;21.73;38.41;98487.94;5097009;28;43088;-81
2023/01/13 11:47:58;;;;;;;2.63;0.83;;;;;;;20.71;39.20;98472.50;5130727;27;42260;-84
2023/01/13 11:50:33;;;;;;;2.07;0.80;;;;;;;20.25;40.88;98455.16;5132972;27;39691;-81
2023/01/13 11:53:16;;;;;;;4.20;0.83;;;;;;;20.23;41.18;98441.03;5113510;28;40842;-83
2023/01/13 11:55:53;;;;;;;3.03;0.80;;;;;;;21.01;38.50;98435.97;5080170;28;43010;-82
2023/01/13 11:58:43;;;;;;;1.73;1.00;;;;;;;22.27;36.16;98477.19;5096530;28;41772;-83
2023/01/13 12:01:41;;;;;;;2.67;1.00;;;;;;;22.91;36.21;98486.66;5098645;27;39045;-82
2023/01/13 12:04:24;;;;;;;3.27;1.00;;;;;;;24.32;32.71;98510.91;5098343;27;41950;-85
2023/01/13 12:07:06;;;;;;;2.10;1.00;;;;;;;22.12;35.17;98492.50;5115936;27;43063;-84
2023/01/13 12:09:48;;;;;;;4.03;1.50;;;;;;;20.57;37.44;98491.19;5099946;27;41134;-82
2023/01/13 12:12:31;;;;;;;1.63;0.80;;;;;;;20.78;37.96;98483.44;5098736;27;40945;-82
2023/01/13 12:15:35;;;;;;;1.40;0.73;;;;;;;20.97;37.26;98483.09;5114200;27;42080;-83
2023/01/13 12:18:33;;;;;;;2.57;0.80;;;;;;;20.50;37.09;98480.25;5098947;27;44746;-87
2023/01/13 12:21:15;;;;;;;2.03;0.97;;;;;;;21.59;36.73;98490.53;5099659;27;42207;-85
2023/01/13 12:23:50;;;;;;;2.40;1.00;;;;;;;20.68;37.43;98482.75;5116756;27;38993;-84
2023/01/13 12:26:19;;;;;;;3.93;1.30;;;;;;;19.37;38.87;98486.94;5096094;28;40654;-82
2023/01/13 12:28:51;;;;;;;3.10;1.23;;;;;;;20.11;38.70;98477.31;5096543;28;41955;-85
2023/01/13 12:31:20;;;;;;;2.63;1.30;;;;;;;20.33;38.18;98465.91;5078781;28;41210;-81
2023/01/13 12:33:59;;;;;;;2.33;0.90;;;;;;;20.32;37.67;98483.06;5095923;28;39244;-81
2023/01/13 12:36:34;;;;;;;1.73;0.90;;;;;;;18.95;39.38;98443.94;5100656;27;42422;-87
2023/01/13 12:39:14;;;;;;;3.43;1.37;;;;;;;18.71;41.14;98440.25;5098326;27;43409;-82
2023/01/13 12:44:34;;;;;;;3.23;1.10;;;;;;;20.52;38.53;98482.78;5079236;28;39324;-81
2023/01/13 12:47:02;;;;;;;3.23;1.00;;;;;;;22.70;35.19;98483.78;5124063;27;42931;-82
2023/01/13 12:49:31;;;;;;;4.40;1.20;;;;;;;24.41;33.33;98531.41;5099688;27;42026;-82
2023/01/13 12:52:12;;;;;;;3.47;1.20;;;;;;;23.87;33.70;98525.50;5114130;27;42278;-82
2023/01/13 12:55:13;;;;;;;2.43;1.17;;;;;;;24.40;31.52;98537.00;5131192;27;40626;-84
2023/01/13 12:57:59;;;;;;;2.40;0.70;;;;;;;23.04;31.55;98537.34;5133350;27;42425;-85
2023/01/13 13:00:32;;;;;;;2.90;0.87;;;;;;;21.92;33.29;98528.94;5113289;27;44379;-82
2023/01/13 13:03:28;;;;;;;2.53;1.03;;;;;;;20.85;34.63;98516.75;5099050;27;43775;-79
2023/01/13 13:06:01;;;;;;;2.43;1.00;;;;;;;20.47;34.41;98496.72;5099065;27;39949;-85
2023/01/13 13:08:43;;;;;;;3.20;1.30;;;;;;;20.52;35.04;98515.06;5115993;27;41618;-84
2023/01/13 13:15:19;;;;;;;2.07;1.00;;;;;;;19.00;37.85;98497.97;5134275;27;42527;-81
2023/01/13 13:18:02;;;;;;;3.30;1.10;;;;;;;18.79;37.92;98476.00;5097817;27;40347;-86
2023/01/13 13:20:56;;;;;;;2.67;1.10;;;;;;;18.30;38.92;98486.31;5113516;27;41978;-83
2023/01/13 13:24:04;;;;;;;3.73;1.03;;;;;;;17.19;41.04;98491.84;5094263;28;43044;-80
2023/01/13 13:26:41;;;;;;;2.47;0.87;;;;;;;16.41;41.90;98484.97;5080711;28;41002;-79
2023/01/13 13:29:25;;;;;;;3.13;1.20;;;;;;;15.90;43.54;98463.00;5078647;28;38998;-82
2023/01/13 13:32:09;;;;;;;3.43;0.90;;;;;;;15.39;44.49;98446.16;5103957;27;41112;-85
2023/01/13 13:34:47;;;;;;;5.07;1.40;;;;;;;15.17;45.34;98458.84;5099427;27;41853;-83
2023/01/13 13:49:12;;;;;;;5.10;1.37;;;;;;;13.08;50.58;98439.03;5097983;27;41160;-83
2023/01/13 13:51:45;;;;;;;3.77;1.07;;;;;;;12.83;51.48;98428.66;5125373;27;39536;-84
2023/01/13 13:54:17;;;;;;;2.43;1.10;;;;;;;12.61;51.91;98440.06;5094931;28;42039;-81
2023/01/13 13:56:47;;;;;;;2.67;1.00;;;;;;;12.29;52.83;98418.66;5100127;27;43763;-86
2023/01/13 13:59:19;;;;;;;3.80;1.50;;;;;;;12.16;53.08;98402.81;5098702;27;41174;-84
2023/01/13 14:01:52;;;;;;;3.77;1.13;;;;;;;12.16;53.00;98418.75;5114916;27;38679;-83
2023/01/13 14:04:24;;;;;;;3.30;1.10;;;;;;;12.20;53.34;98445.91;5115104;27;41057;-84
2023/01/13 14:06:54;;;;;;;5.87;1.40;;;;;;;12.02;53.91;98441.97;5114551;27;43072;-80
2023/01/13 14:09:25;;;;;;;3.17;1.10;;;;;;;11.92;53.99;98436.53;5115334;27;40913;-88
2023/01/13 14:11:58;;;;;;;2.77;0.93;;;;;;;11.63;54.29;98441.28;5094256;28;38881;-83
2023/01/13 14:14:26;;;;;;;3.87;1.30;;;;;;;11.64;55.09;98463.34;5094420;28;41889;-83
2023/01/13 14:16:55;;;;;;;3.40;1.30;;;;;;;11.40;54.81;98447.41;5103637;27;42775;-89
2023/01/13 14:19:30;;;;;;;4.17;1.13;;;;;;;11.39;55.03;98469.59;5115263;27;42837;-82
2023/01/13 14:21:59;;;;;;;5.27;1.30;;;;;;;11.29;55.25;98473.84;5114430;27;40275;-88
2023/01/13 14:24:28;;;;;;;3.93;2.13;;;;;;;11.08;56.01;98447.94;5114721;27;40990;-82
2023/01/13 14:27:08;;;;;;;4.10;1.93;;;;;;;11.11;56.73;98474.22;5114416;27;42722;-82
2023/01/13 14:29:36;;;;;;;3.07;1.03;;;;;;;11.12;56.34;98488.31;5128023;27;42161;-86
2023/01/13 14:32:06;;;;;;;3.57;1.30;;;;;;;10.97;55.98;98484.09;5093257;27;40273;-83
2023/01/13 14:34:36;;;;;;;5.87;1.67;;;;;;;10.99;56.72;98495.44;5114526;27;41265;-84
2023/01/13 14:37:21;;;;;;;3.93;1.10;;;;;;;11.02;56.13;98501.34;5131496;27;43501;-82
2023/01/13 14:39:49;;;;;;;4.93;1.70;;;;;;;11.04;56.59;98502.09;5097586;27;42357;-83
2023/01/13 14:42:17;;;;;;;4.23;1.23;;;;;;;10.92;56.69;98481.75;5088511;28;39722;-84
2023/01/13 14:44:47;;;;;;;4.90;1.30;;;;;;;11.02;56.32;98481.94;5094355;28;42378;-86
2023/01/13 14:47:21;;;;;;;3.67;1.10;;;;;;;10.91;57.30;98495.09;5113983;27;43893;-85
2023/01/13 14:50:04;;;;;;;2.53;1.10;;;;;;;10.94;57.01;98498.41;5114718;27;41656;-84
2023/01/13 14:52:34;;;;;;;3.80;1.27;;;;;;;10.91;57.59;98498.59;5097169;27;39906;-86
2023/01/13 14:55:27;;;;;;;3.67;1.30;;;;;;;10.88;58.57;98493.50;5097680;27;40944;-87
2023/01/13 14:58:23;;;;;;;6.47;1.10;;;;;;;10.86;58.53;98507.84;5113755;27;43697;-86
2023/01/13 15:00:52;;;;;;;4.03;1.43;;;;;;;10.84;57.80;98526.50;5114819;27;41519;-85
2023/01/13 15:03:22;;;;;;;5.97;1.40;;;;;;;10.80;58.40;98515.25;5099758;27;38929;-82
2023/01/13 15:05:53;;;;;;;4.10;1.20;;;;;;;10.64;57.88;98529.63;5101224;27;40314;-85
2023/01/13 15:08:42;;;;;;;2.87;1.20;;;;;;;10.58;58.49;98524.75;5100025;27;41380;-81
2023/01/13 15:11:22;;;;;;;5.40;1.47;;;;;;;10.48;57.28;98544.88;5111158;27;43011;-81
2023/01/13 15:13:57;;;;;;;4.90;1.50;;;;;;;10.57;57.14;98555.69;5114781;27;39750;-80
2023/01/13 15:16:26;;;;;;;4.10;1.30;;;;;;;10.58;57.46;98553.88;5117166;27;40725;-83
2023/01/13 15:18:55;;;;;;;5.23;1.30;;;;;;;10.75;56.81;98566.84;5117504;27;41954;-82
2023/01/13 15:21:25;;;;;;;4.37;1.30;;;;;;;10.59;57.04;98553.78;5134989;27;42979;-81
2023/01/13 15:23:53;;;;;;;4.77;1.33;;;;;;;10.54;57.40;98565.63;5117622;27;40471;-80
2023/01/13 15:26:24;;;;;;;6.10;1.57;;;;;;;10.37;57.85;98575.56;5100168;27;40695;-78
2023/01/13 15:28:53;;;;;;;3.47;1.20;;;;;;;10.17;58.80;98575.97;5100195;27;42342;-80
2023/01/13 15:31:22;;;;;;;3.50;1.20;;;;;;;10.17;58.88;98591.00;5116804;27;42115;-79
2023/01/13 15:33:49;;;;;;;3.47;1.03;;;;;;;10.06;58.72;98597.00;5117460;27;38842;-80
2023/01/13 15:36:26;;;;;;;4.70;1.30;;;;;;;10.04;59.29;98596.22;5116597;27;41618;-81
2023/01/13 15:38:54;;;;;;;4.13;1.40;;;;;;;10.06;59.52;98608.41;5117253;27;43260;-80
2023/01/13 15:46:49;;;;;;;1.63;1.03;;;;;;;10.11;59.70;98616.06;5116483;27;40650;-87
2023/01/13 15:49:25;;;;;;;4.50;1.10;;;;;;;9.93;59.70;98594.28;5116934;27;41685;-84
2023/01/13 15:51:55;;;;;;;2.90;1.07;;;;;;;9.88;60.50;98591.09;5099823;27;41461;-83
2023/01/13 15:54:23;;;;;;;6.47;1.30;;;;;;;9.82;60.44;98587.97;5117400;27;40155;-84
2023/01/13 15:56:52;;;;;;;5.33;1.47;;;;;;;9.75;61.01;98605.19;5099704;27;41858;-82
2023/01/13 15:59:24;;;;;;;4.27;1.37;;;;;;;9.61;60.99;98606.91;5099658;27;41529;-84
2023/01/13 16:01:52;;;;;;;8.10;1.80;;;;;;;9.64;61.82;98616.44;5135906;27;40992;-85
2023/01/13 16:04:20;;;;;;;4.57;1.30;;;;;;;9.66;61.65;98640.97;5102444;27;39811;-80
2023/01/13 16:06:48;;;;;;;9.57;1.80;;;;;;;9.55;62.37;98630.22;5097142;28;41553;-77
2023/01/13 16:09:17;;;;;;;2.80;1.13;;;;;;;9.51;61.90;98632.22;5079754;28;41670;-82
2023/01/13 16:11:45;;;;;;;3.67;1.40;;;;;;;9.46;62.87;98628.16;5088026;27;41186;-83
2023/01/13 16:14:13;;;;;;;5.40;1.33;;;;;;;9.39;62.82;98627.69;5099878;27;38482;-86
2023/01/13 16:16:41;;;;;;;3.17;1.07;;;;;;;9.27;63.28;98617.88;5101602;27;40341;-84
2023/01/13 16:19:11;;;;;;;4.30;1.20;;;;;;;9.25;63.28;98617.09;5100824;27;42313;-81
2023/01/13 16:21:39;;;;;;;3.27;1.10;;;;;;;9.50;63.34;98649.03;5100253;27;42703;-81
2023/01/13 16:24:07;;;;;;;2.20;1.10;;;;;;;9.44;63.30;98633.53;5101928;27;38752;-86
2023/01/13 16:26:37;;;;;;;5.73;1.00;;;;;;;9.63;62.98;98657.91;5099504;27;40921;-83
2023/01/13 16:29:08;;;;;;;2.50;1.00;;;;;;;9.59;63.26;98661.66;5117027;27;41917;-81
2023/01/13 16:31:42;;;;;;;3.13;0.90;;;;;;;9.52;62.53;98639.19;5099201;27;42419;-85
2023/01/13 16:34:09;;;;;;;1.53;1.10;;;;;;;9.57;63.15;98637.13;5100208;27;40341;-83
2023/01/13 16:36:37;;;;;;;4.23;1.43;;;;;;;9.66;62.88;98659.47;5099206;27;41832;-85
2023/01/13 16:39:14;;;;;;;4.07;1.73;;;;;;;9.53;62.85;98654.09;5100155;27;42662;-84
2023/01/13 16:41:45;;;;;;;5.73;1.70;;;;;;;9.45;63.49;98642.31;5100069;27;42432;-84
2023/01/13 16:44:13;;;;;;;5.40;2.20;;;;;;;9.56;63.96;98664.50;5100066;27;38698;-80
2023/01/13 16:46:43;;;;;;;3.27;1.63;;;;;;;9.50;64.96;98662.25;5099259;27;41540;-80
2023/01/13 16:49:13;;;;;;;2.93;1.70;;;;;;;9.37;64.89;98666.56;5116552;27;43282;-85
2023/01/13 16:51:42;;;;;;;6.93;1.47;;;;;;;9.45;65.38;98672.22;5116021;27;43038;-86
2023/01/13 16:54:10;;;;;;;5.33;1.27;;;;;;;9.41;66.09;98662.78;5116155;27;39232;-82
2023/01/13 16:56:38;;;;;;;5.90;1.37;;;;;;;9.40;66.80;98679.56;5098494;27;41634;-81
2023/01/13 16:59:10;;;;;;;4.30;2.33;;;;;;;9.43;67.18;98686.47;5116217;27;43917;-83
2023/01/13 17:01:40;;;;;;;5.97;1.50;;;;;;;9.33;67.68;98678.25;5115574;27;40976;-81
2023/01/13 17:04:15;;;;;;;4.63;1.90;;;;;;;9.18;68.13;98660.69;5113795;27;38930;-84
2023/01/13 17:06:50;;;;;;;3.77;1.60;;;;;;;9.25;68.01;98662.03;5099113;27;40516;-83
2023/01/13 17:09:21;;;;;;;2.50;1.43;;;;;;;9.40;67.48;98700.72;5116113;27;41783;-82
2023/01/13 17:11:49;;;;;;;5.47;1.57;;;;;;;9.44;68.24;98704.03;5099494;27;42345;-82
2023/01/13 17:14:22;;;;;;;5.07;1.67;;;;;;;9.20;69.96;98664.09;5099109;27;39096;-82
2023/01/13 17:16:50;;;;;;;3.37;1.23;;;;;;;9.25;70.93;98677.88;5099486;27;41262;-82
2023/01/13 17:19:18;;;;;;;7.10;1.83;;;;;;;9.15;72.56;98680.19;5134157;27;42578;-84
2023/01/13 17:21:47;;;;;;;4.70;1.80;;;;;;;9.08;72.44;98686.81;5098897;27;41206;-82
2023/01/13 17:24:14;;;;;;;3.90;1.60;;;;;;;9.04;73.39;98681.78;5115552;27;39800;-83
2023/01/13 17:26:46;;;;;;;7.77;2.03;;;;;;;9.06;73.85;98711.59;5115974;27;42300;-81
2023/01/13 17:29:15;;;;;;;4.43;1.50;;;;;;;9.00;73.94;98715.47;5099278;27;41428;-80
2023/01/13 17:31:45;;;;;;;5.97;1.83;;;;;;;8.98;74.07;98717.34;5098910;27;41287;-82
2023/01/13 17:34:13;;;;;;;5.73;1.97;;;;;;;8.89;74.01;98708.16;5099105;27;38886;-82
2023/01/13 17:36:42;;;;;;;6.10;1.50;;;;;;;8.79;73.65;98717.53;5098725;27;40693;-81
2023/01/13 17:39:16;;;;;;;9.00;1.53;;;;;;;8.67;73.93;98710.31;5113244;27;43057;-82
2023/01/13 17:41:44;;;;;;;4.67;1.33;;;;;;;8.71;73.73;98721.56;5099096;27;41002;-85
2023/01/13 17:44:13;;;;;;;3.90;1.50;;;;;;;8.73;74.04;98728.47;5116269;27;39720;-82
2023/01/13 17:46:41;;;;;;;3.80;1.43;;;;;;;8.62;73.18;98728.22;5098145;27;42722;-82
2023/01/13 17:49:11;;;;;;;4.93;1.90;;;;;;;8.57;73.34;98727.63;5133982;27;43706;-82
2023/01/13 17:51:39;;;;;;;4.90;1.77;;;;;;;8.54;73.25;98735.72;5098476;27;41071;-81
2023/01/13 17:54:10;;;;;;;7.43;2.90;;;;;;;8.29;73.16;98701.88;5098933;27;38558;-82
2023/01/13 17:56:39;;;;;;;4.53;1.77;;;;;;;8.62;74.11;98762.53;5098784;27;41046;-82
2023/01/13 17:59:07;;;;;;;9.90;3.00;;;;;;;8.52;74.45;98742.88;5098393;27;42204;-83
2023/01/13 18:01:34;;;;;;;7.37;2.17;;;;;;;8.52;74.54;98745.53;5098768;27;40821;-84
2023/01/13 18:04:02;;;;;;;7.33;1.97;;;;;;;8.60;74.18;98767.06;5098623;27;38975;-81
2023/01/13 18:06:32;;;;;;;6.93;2.23;;;;;;;8.57;74.37;98769.84;5115622;27;40826;-81
2023/01/13 18:09:00;;;;;;;6.07;1.43;;;;;;;8.48;74.52;98760.66;5098366;27;41907;-82
2023/01/13 18:11:28;;;;;;;3.33;2.03;;;;;;;8.48;75.44;98786.22;5097945;27;41589;-82
